Time,TemperatureF,DewpointF,PressureIn,WindDirection,WindDirectionDegrees,WindSpeedMPH,WindSpeedGustMPH,Humidity,HourlyPrecipIn,Conditions,Clouds,dailyrainin,SoftwareType,DateUTC
2013-03-18 00:00:00,36.0,20.0,-100.00,NE,54,5.0,12.0,51,-99.99,,,-99.99,,2013-03-18 04:00:00,
2013-03-18 00:23:00,36.0,20.0,-100.00,NE,54,5.0,12.0,51,-99.99,,,-99.99,,2013-03-18 04:23:00,
2013-03-18 00:33:00,36.0,20.0,-100.00,NE,54,5.0,12.0,51,-99.99,,,-99.99,,2013-03-18 04:33:00,
2013-03-18 00:42:00,36.0,20.0,-100.00,NE,54,5.0,12.0,51,-99.99,,,-99.99,,2013-03-18 04:42:00,
2013-03-18 00:53:00,36.0,20.0,-100.00,NE,54,5.0,12.0,51,-99.99,,,-99.99,,2013-03-18 04:53:00,
2013-03-18 01:00:00,36.0,18.0,-100.00,ENE,66,5.0,12.0,47,-99.99,,,-99.99,,2013-03-18 05:00:00,
2013-03-18 01:23:00,36.0,18.0,-100.00,ENE,66,5.0,12.0,47,-99.99,,,-99.99,,2013-03-18 05:23:00,
2013-03-18 01:32:00,36.0,18.0,-100.00,ENE,66,5.0,12.0,47,-99.99,,,-99.99,,2013-03-18 05:32:00,
2013-03-18 01:43:00,36.0,18.0,-100.00,ENE,66,5.0,12.0,47,-99.99,,,-99.99,,2013-03-18 05:43:00,
2013-03-18 01:52:00,36.0,18.0,-100.00,ENE,66,5.0,12.0,47,-99.99,,,-99.99,,2013-03-18 05:52:00,
2013-03-18 02:00:00,36.0,20.0,-100.00,NE,47,2.0,8.0,52,-99.99,,,-99.99,,2013-03-18 06:00:00,
2013-03-18 02:22:00,36.0,20.0,-100.00,NE,47,2.0,8.0,52,-99.99,,,-99.99,,2013-03-18 06:22:00,
2013-03-18 02:32:00,36.0,20.0,-100.00,NE,47,2.0,8.0,52,-99.99,,,-99.99,,2013-03-18 06:32:00,
2013-03-18 02:42:00,36.0,20.0,-100.00,NE,47,2.0,8.0,52,-99.99,,,-99.99,,2013-03-18 06:42:00,
2013-03-18 02:53:00,36.0,20.0,-100.00,NE,47,2.0,8.0,52,-99.99,,,-99.99,,2013-03-18 06:53:00,
2013-03-18 03:00:00,36.0,20.0,-100.00,NE,44,4.0,9.0,52,-99.99,,,-99.99,,2013-03-18 07:00:00,
2013-03-18 03:23:00,36.0,20.0,-100.00,NE,44,4.0,9.0,52,-99.99,,,-99.99,,2013-03-18 07:23:00,
2013-03-18 03:33:00,36.0,20.0,-100.00,NE,44,4.0,9.0,52,-99.99,,,-99.99,,2013-03-18 07:33:00,
2013-03-18 03:43:00,36.0,20.0,-100.00,NE,44,4.0,9.0,52,-99.99,,,-99.99,,2013-03-18 07:43:00,
2013-03-18 03:53:00,36.0,20.0,-100.00,NE,44,4.0,9.0,52,-99.99,,,-99.99,,2013-03-18 07:53:00,
2013-03-18 04:00:00,36.0,19.0,-100.00,NE,45,4.0,10.0,50,-99.99,,,-99.99,,2013-03-18 08:00:00,
2013-03-18 04:22:00,36.0,19.0,-100.00,NE,45,4.0,10.0,50,-99.99,,,-99.99,,2013-03-18 08:22:00,
2013-03-18 04:32:00,36.0,19.0,-100.00,NE,45,4.0,10.0,50,-99.99,,,-99.99,,2013-03-18 08:32:00,
2013-03-18 04:43:00,36.0,19.0,-100.00,NE,45,4.0,10.0,50,-99.99,,,-99.99,,2013-03-18 08:43:00,
2013-03-18 04:53:00,36.0,19.0,-100.00,NE,45,4.0,10.0,50,-99.99,,,-99.99,,2013-03-18 08:53:00,
2013-03-18 05:00:00,36.0,19.0,-100.00,NE,49,10.0,13.0,51,-99.99,,,-99.99,,2013-03-18 09:00:00,
2013-03-18 05:22:00,36.0,19.0,-100.00,NE,49,10.0,13.0,51,-99.99,,,-99.99,,2013-03-18 09:22:00,
2013-03-18 05:33:00,36.0,19.0,-100.00,NE,49,10.0,13.0,51,-99.99,,,-99.99,,2013-03-18 09:33:00,
2013-03-18 05:43:00,36.0,19.0,-100.00,NE,49,10.0,13.0,51,-99.99,,,-99.99,,2013-03-18 09:43:00,
2013-03-18 05:53:00,36.0,19.0,-100.00,NE,49,10.0,13.0,51,-99.99,,,-99.99,,2013-03-18 09:53:00,
2013-03-18 06:00:00,36.0,23.0,-100.00,ENE,60,10.0,12.0,60,-99.99,,,-99.99,,2013-03-18 10:00:00,
2013-03-18 06:33:00,36.0,23.0,-100.00,ENE,60,10.0,12.0,60,-99.99,,,-99.99,,2013-03-18 10:33:00,
2013-03-18 06:42:00,36.0,23.0,-100.00,ENE,60,10.0,12.0,60,-99.99,,,-99.99,,2013-03-18 10:42:00,
2013-03-18 06:53:00,36.0,23.0,-100.00,ENE,60,10.0,12.0,60,-99.99,,,-99.99,,2013-03-18 10:53:00,
2013-03-18 07:00:00,37.0,26.0,-100.00,NE,48,5.0,12.0,65,-99.99,,,-99.99,,2013-03-18 11:00:00,
2013-03-18 07:32:00,37.0,26.0,-100.00,NE,48,5.0,12.0,65,-99.99,,,-99.99,,2013-03-18 11:32:00,
2013-03-18 07:43:00,37.0,26.0,-100.00,NE,48,5.0,12.0,65,-99.99,,,-99.99,,2013-03-18 11:43:00,
2013-03-18 07:53:00,37.0,26.0,-100.00,NE,48,5.0,12.0,65,-99.99,,,-99.99,,2013-03-18 11:53:00,
2013-03-18 08:00:00,39.0,26.0,-100.00,East,92,8.0,18.0,58,-99.99,,,-99.99,,2013-03-18 12:00:00,
2013-03-18 08:33:00,39.0,26.0,-100.00,East,92,8.0,18.0,58,-99.99,,,-99.99,,2013-03-18 12:33:00,
2013-03-18 08:43:00,39.0,26.0,-100.00,East,92,8.0,18.0,58,-99.99,,,-99.99,,2013-03-18 12:43:00,
2013-03-18 08:52:00,39.0,26.0,-100.00,East,92,8.0,18.0,58,-99.99,,,-99.99,,2013-03-18 12:52:00,
2013-03-18 09:00:00,39.0,25.0,-100.00,ESE,112,16.0,22.0,57,-99.99,,,-99.99,,2013-03-18 13:00:00,
2013-03-18 09:23:00,39.0,25.0,-100.00,ESE,112,16.0,22.0,57,-99.99,,,-99.99,,2013-03-18 13:23:00,
2013-03-18 09:33:00,39.0,25.0,-100.00,ESE,112,16.0,22.0,57,-99.99,,,-99.99,,2013-03-18 13:33:00,
2013-03-18 09:42:00,39.0,25.0,-100.00,ESE,112,16.0,22.0,57,-99.99,,,-99.99,,2013-03-18 13:42:00,
2013-03-18 09:52:00,39.0,25.0,-100.00,ESE,112,16.0,22.0,57,-99.99,,,-99.99,,2013-03-18 13:52:00,
2013-03-18 10:00:00,39.0,25.0,-100.00,ESE,107,10.0,22.0,58,-99.99,,,-99.99,,2013-03-18 14:00:00,
2013-03-18 10:22:00,39.0,25.0,-100.00,ESE,107,10.0,22.0,58,-99.99,,,-99.99,,2013-03-18 14:22:00,
2013-03-18 10:32:00,39.0,25.0,-100.00,ESE,107,10.0,22.0,58,-99.99,,,-99.99,,2013-03-18 14:32:00,
2013-03-18 10:42:00,39.0,25.0,-100.00,ESE,107,10.0,22.0,58,-99.99,,,-99.99,,2013-03-18 14:42:00,
2013-03-18 10:52:00,39.0,25.0,-100.00,ESE,107,10.0,22.0,58,-99.99,,,-99.99,,2013-03-18 14:52:00,
2013-03-18 12:00:00,40.0,30.0,-100.00,ESE,103,11.0,21.0,69,-99.99,,,-99.99,,2013-03-18 16:00:00,
2013-03-18 12:23:00,40.0,30.0,-100.00,ESE,103,11.0,21.0,69,-99.99,,,-99.99,,2013-03-18 16:23:00,
2013-03-18 12:33:00,40.0,30.0,-100.00,ESE,103,11.0,21.0,69,-99.99,,,-99.99,,2013-03-18 16:33:00,
2013-03-18 12:42:00,40.0,30.0,-100.00,ESE,103,11.0,21.0,69,-99.99,,,-99.99,,2013-03-18 16:42:00,
2013-03-18 12:53:00,40.0,30.0,-100.00,ESE,103,11.0,21.0,69,-99.99,,,-99.99,,2013-03-18 16:53:00,
2013-03-18 13:00:00,40.0,33.0,-100.00,ESE,107,11.0,24.0,74,-99.99,,,-99.99,,2013-03-18 17:00:00,
2013-03-18 13:33:00,40.0,33.0,-100.00,ESE,107,11.0,24.0,74,-99.99,,,-99.99,,2013-03-18 17:33:00,
2013-03-18 13:43:00,40.0,33.0,-100.00,ESE,107,11.0,24.0,74,-99.99,,,-99.99,,2013-03-18 17:43:00,
2013-03-18 13:52:00,40.0,33.0,-100.00,ESE,107,11.0,24.0,74,-99.99,,,-99.99,,2013-03-18 17:52:00,
2013-03-18 14:00:00,40.0,35.0,-100.00,East,96,14.0,26.0,83,-99.99,,,-99.99,,2013-03-18 18:00:00,
2013-03-18 14:22:00,40.0,35.0,-100.00,East,96,14.0,26.0,83,-99.99,,,-99.99,,2013-03-18 18:22:00,
2013-03-18 14:32:00,40.0,35.0,-100.00,East,96,14.0,26.0,83,-99.99,,,-99.99,,2013-03-18 18:32:00,
2013-03-18 14:42:00,40.0,35.0,-100.00,East,96,14.0,26.0,83,-99.99,,,-99.99,,2013-03-18 18:42:00,
2013-03-18 14:52:00,40.0,35.0,-100.00,East,96,14.0,26.0,83,-99.99,,,-99.99,,2013-03-18 18:52:00,
2013-03-18 15:00:00,40.0,38.0,-100.00,ENE,69,12.0,22.0,92,-99.99,,,-99.99,,2013-03-18 19:00:00,
2013-03-18 15:22:00,40.0,38.0,-100.00,ENE,69,12.0,22.0,92,-99.99,,,-99.99,,2013-03-18 19:22:00,
2013-03-18 15:33:00,40.0,38.0,-100.00,ENE,69,12.0,22.0,92,-99.99,,,-99.99,,2013-03-18 19:33:00,
2013-03-18 15:42:00,40.0,38.0,-100.00,ENE,69,12.0,22.0,92,-99.99,,,-99.99,,2013-03-18 19:42:00,
2013-03-18 15:52:00,40.0,38.0,-100.00,ENE,69,12.0,22.0,92,-99.99,,,-99.99,,2013-03-18 19:52:00,
2013-03-18 16:00:00,42.0,41.0,-100.00,East,86,7.0,21.0,97,-99.99,,,-99.99,,2013-03-18 20:00:00,
2013-03-18 16:23:00,42.0,41.0,-100.00,East,86,7.0,21.0,97,-99.99,,,-99.99,,2013-03-18 20:23:00,
2013-03-18 16:33:00,42.0,41.0,-100.00,East,86,7.0,21.0,97,-99.99,,,-99.99,,2013-03-18 20:33:00,
2013-03-18 16:43:00,42.0,41.0,-100.00,East,86,7.0,21.0,97,-99.99,,,-99.99,,2013-03-18 20:43:00,
2013-03-18 16:53:00,42.0,41.0,-100.00,East,86,7.0,21.0,97,-99.99,,,-99.99,,2013-03-18 20:53:00,
2013-03-18 17:00:00,43.0,42.0,-100.00,ESE,117,11.0,19.0,98,-99.99,,,-99.99,,2013-03-18 21:00:00,
2013-03-18 17:33:00,43.0,42.0,-100.00,ESE,117,11.0,19.0,98,-99.99,,,-99.99,,2013-03-18 21:33:00,
2013-03-18 17:43:00,43.0,42.0,-100.00,ESE,117,11.0,19.0,98,-99.99,,,-99.99,,2013-03-18 21:43:00,
2013-03-18 17:53:00,43.0,42.0,-100.00,ESE,117,11.0,19.0,98,-99.99,,,-99.99,,2013-03-18 21:53:00,
2013-03-18 18:00:00,43.0,43.0,-100.00,ESE,110,13.0,21.0,98,-99.99,,,-99.99,,2013-03-18 22:00:00,
2013-03-18 18:23:00,43.0,43.0,-100.00,ESE,110,13.0,21.0,98,-99.99,,,-99.99,,2013-03-18 22:23:00,
2013-03-18 18:33:00,43.0,43.0,-100.00,ESE,110,13.0,21.0,98,-99.99,,,-99.99,,2013-03-18 22:33:00,
2013-03-18 18:42:00,43.0,43.0,-100.00,ESE,110,13.0,21.0,98,-99.99,,,-99.99,,2013-03-18 22:42:00,
2013-03-18 18:53:00,43.0,43.0,-100.00,ESE,110,13.0,21.0,98,-99.99,,,-99.99,,2013-03-18 22:53:00,
2013-03-18 19:00:00,44.0,44.0,-100.00,East,94,13.0,24.0,98,-99.99,,,-99.99,,2013-03-18 23:00:00,
2013-03-18 19:23:00,44.0,44.0,-100.00,East,94,13.0,24.0,98,-99.99,,,-99.99,,2013-03-18 23:23:00,
2013-03-18 19:33:00,44.0,44.0,-100.00,East,94,13.0,24.0,98,-99.99,,,-99.99,,2013-03-18 23:33:00,
2013-03-18 19:43:00,44.0,44.0,-100.00,East,94,13.0,24.0,98,-99.99,,,-99.99,,2013-03-18 23:43:00,
2013-03-18 19:53:00,44.0,44.0,-100.00,East,94,13.0,24.0,98,-99.99,,,-99.99,,2013-03-18 23:53:00,
2013-03-18 20:00:00,45.0,44.0,-100.00,ESE,112,8.0,21.0,98,-99.99,,,-99.99,,2013-03-19 00:00:00,
2013-03-18 20:23:00,45.0,44.0,-100.00,ESE,112,8.0,21.0,98,-99.99,,,-99.99,,2013-03-19 00:23:00,
2013-03-18 20:33:00,45.0,44.0,-100.00,ESE,112,8.0,21.0,98,-99.99,,,-99.99,,2013-03-19 00:33:00,
2013-03-18 20:43:00,45.0,44.0,-100.00,ESE,112,8.0,21.0,98,-99.99,,,-99.99,,2013-03-19 00:43:00,
2013-03-18 20:52:00,45.0,44.0,-100.00,ESE,112,8.0,21.0,98,-99.99,,,-99.99,,2013-03-19 00:52:00,
2013-03-18 21:00:00,46.0,46.0,-100.00,SSE,166,8.0,27.0,98,-99.99,,,-99.99,,2013-03-19 01:00:00,
2013-03-18 21:23:00,46.0,46.0,-100.00,SSE,166,8.0,27.0,98,-99.99,,,-99.99,,2013-03-19 01:23:00,
2013-03-18 21:33:00,46.0,46.0,-100.00,SSE,166,8.0,27.0,98,-99.99,,,-99.99,,2013-03-19 01:33:00,
2013-03-18 21:43:00,46.0,46.0,-100.00,SSE,166,8.0,27.0,98,-99.99,,,-99.99,,2013-03-19 01:43:00,
2013-03-18 21:53:00,46.0,46.0,-100.00,SSE,166,8.0,27.0,98,-99.99,,,-99.99,,2013-03-19 01:53:00,
2013-03-18 22:00:00,47.0,46.0,-100.00,SE,138,5.0,23.0,99,-99.99,,,-99.99,,2013-03-19 02:00:00,
2013-03-18 22:23:00,47.0,46.0,-100.00,SE,138,5.0,23.0,99,-99.99,,,-99.99,,2013-03-19 02:23:00,
2013-03-18 22:33:00,47.0,46.0,-100.00,SE,138,5.0,23.0,99,-99.99,,,-99.99,,2013-03-19 02:33:00,
2013-03-18 22:43:00,47.0,46.0,-100.00,SE,138,5.0,23.0,99,-99.99,,,-99.99,,2013-03-19 02:43:00,
2013-03-18 22:53:00,47.0,46.0,-100.00,SE,138,5.0,23.0,99,-99.99,,,-99.99,,2013-03-19 02:53:00,
2013-03-18 23:00:00,49.0,49.0,-100.00,West,272,5.0,21.0,99,-99.99,,,-99.99,,2013-03-19 03:00:00,
2013-03-18 23:23:00,49.0,49.0,-100.00,West,272,5.0,21.0,99,-99.99,,,-99.99,,2013-03-19 03:23:00,
2013-03-18 23:33:00,49.0,49.0,-100.00,West,272,5.0,21.0,99,-99.99,,,-99.99,,2013-03-19 03:33:00,
2013-03-18 23:43:00,49.0,49.0,-100.00,West,272,5.0,21.0,99,-99.99,,,-99.99,,2013-03-19 03:43:00,
2013-03-18 23:54:00,49.0,49.0,-100.00,West,272,5.0,21.0,99,-99.99,,,-99.99,,2013-03-19 03:54:00,